Time;durP1;ratioP1;P1;durP2;ratioP2;P2;SDS_P1;SDS_P2;PMS_P1;PMS_P2;Temp;Humidity;BMP_temperature;BMP_pressure;BME280_temperature;BME280_humidity;BME280_pressure;Samples;Min_cycle;Max_cycle;Signal;HPM_P1;HPM_P2
2022/12/02 00:01:18;;;;;;;40.33;20.10;;;4.90;99.90;;;;;;4965680;28;20069;-79
2022/12/02 00:03:45;;;;;;;37.92;19.25;;;4.90;99.90;;;;;;4950357;28;20616;-77
2022/12/02 00:06:28;;;;;;;36.35;17.42;;;4.80;99.90;;;;;;4966599;28;20112;-77
2022/12/02 00:09:15;;;;;;;30.42;19.38;;;4.90;99.90;;;;;;4965479;28;20125;-77
2022/12/02 00:11:40;;;;;;;34.75;19.48;;;4.80;99.90;;;;;;4966792;28;20501;-77
2022/12/02 00:14:18;;;;;;;26.10;17.10;;;4.80;99.90;;;;;;4964561;28;20051;-77
2022/12/02 00:16:44;;;;;;;36.08;20.67;;;4.70;99.90;;;;;;4949441;28;20211;-78
2022/12/02 00:19:09;;;;;;;32.75;17.48;;;4.80;99.90;;;;;;4966454;28;20109;-77
2022/12/02 00:21:35;;;;;;;32.88;16.63;;;4.70;99.90;;;;;;4966966;28;20493;-77
2022/12/02 00:24:00;;;;;;;37.03;16.88;;;4.70;99.90;;;;;;4966123;28;20042;-77
2022/12/02 00:26:26;;;;;;;39.33;19.38;;;4.70;99.90;;;;;;4965505;28;20078;-77
2022/12/02 00:28:51;;;;;;;31.85;16.70;;;4.70;99.90;;;;;;4963762;28;20090;-77
2022/12/02 00:31:17;;;;;;;29.77;17.20;;;4.70;99.90;;;;;;4966920;28;20054;-77
2022/12/02 00:33:43;;;;;;;34.80;17.67;;;4.70;99.90;;;;;;4964878;28;20049;-78
2022/12/02 00:36:08;;;;;;;28.75;17.25;;;4.70;99.90;;;;;;4965932;28;20059;-78
2022/12/02 00:38:34;;;;;;;29.58;15.68;;;4.60;99.90;;;;;;4966136;28;20046;-78
2022/12/02 00:40:59;;;;;;;28.60;15.88;;;4.60;99.90;;;;;;4966024;28;20524;-78
2022/12/02 00:48:53;;;;;;;26.95;16.08;;;4.60;99.90;;;;;;4964321;28;20077;-75
2022/12/02 00:51:19;;;;;;;27.30;15.25;;;4.50;99.90;;;;;;4965889;28;20050;-76
2022/12/02 00:53:44;;;;;;;35.13;17.45;;;4.60;99.90;;;;;;4965095;28;20138;-75
2022/12/02 00:56:10;;;;;;;25.73;17.10;;;4.50;99.90;;;;;;4964320;28;20109;-75
2022/12/02 00:58:36;;;;;;;32.55;20.38;;;4.50;99.90;;;;;;4962838;28;20481;-75
2022/12/02 01:01:01;;;;;;;27.48;17.10;;;4.50;99.90;;;;;;4965185;28;20549;-74
2022/12/02 01:03:27;;;;;;;21.70;15.35;;;4.50;99.90;;;;;;4965419;28;20041;-74
2022/12/02 01:05:52;;;;;;;28.98;16.50;;;4.50;99.90;;;;;;4965164;28;20058;-75
2022/12/02 01:08:18;;;;;;;27.92;16.42;;;4.50;99.90;;;;;;4964784;28;20038;-75
2022/12/02 01:10:43;;;;;;;40.25;20.10;;;4.40;99.90;;;;;;4964475;28;20046;-75
2022/12/02 01:13:09;;;;;;;24.95;16.65;;;4.40;99.90;;;;;;4964847;28;20049;-74
2022/12/02 01:15:34;;;;;;;31.77;17.63;;;4.40;99.90;;;;;;4963482;28;20094;-75
2022/12/02 01:18:00;;;;;;;29.17;18.50;;;4.40;99.90;;;;;;4963849;28;20065;-75
2022/12/02 01:20:26;;;;;;;34.10;16.85;;;4.50;99.90;;;;;;4964178;28;20560;-75
2022/12/02 01:22:51;;;;;;;27.02;15.40;;;4.40;99.90;;;;;;4963805;28;20047;-74
2022/12/02 01:25:17;;;;;;;25.55;15.85;;;4.40;99.90;;;;;;4964660;28;20047;-74
2022/12/02 01:27:43;;;;;;;24.00;17.45;;;4.40;99.90;;;;;;4965949;28;20067;-75
2022/12/02 01:30:09;;;;;;;32.85;16.48;;;4.40;99.90;;;;;;4964128;28;20054;-75
2022/12/02 01:32:35;;;;;;;30.98;15.95;;;4.40;99.90;;;;;;4964915;28;20455;-75
2022/12/02 01:35:00;;;;;;;41.15;19.40;;;4.40;99.90;;;;;;4964948;28;20046;-75
2022/12/02 01:37:26;;;;;;;24.80;16.85;;;4.40;99.90;;;;;;4963729;28;20074;-75
2022/12/02 01:39:51;;;;;;;28.55;18.27;;;4.40;99.90;;;;;;4963340;28;20093;-75
2022/12/02 01:42:17;;;;;;;31.08;16.83;;;4.40;99.90;;;;;;4964497;28;20125;-76
2022/12/02 01:44:43;;;;;;;29.10;18.08;;;4.40;99.90;;;;;;4962698;28;20050;-76
2022/12/02 01:47:08;;;;;;;27.40;16.10;;;4.40;99.90;;;;;;4963570;28;20043;-75
2022/12/02 01:49:34;;;;;;;28.10;16.52;;;4.40;99.90;;;;;;4965016;28;20049;-76
2022/12/02 01:51:59;;;;;;;25.98;16.33;;;4.30;99.90;;;;;;4963738;28;20185;-76
2022/12/02 01:54:33;;;;;;;32.22;16.45;;;4.30;99.90;;;;;;4964799;28;20081;-76
2022/12/02 01:56:58;;;;;;;31.65;19.23;;;4.30;99.90;;;;;;4964623;28;20034;-74
2022/12/02 01:59:25;;;;;;;32.20;16.00;;;4.30;99.90;;;;;;4964103;28;20054;-75
2022/12/02 02:01:51;;;;;;;26.65;16.25;;;4.30;99.90;;;;;;4964725;28;20050;-75
2022/12/02 02:04:17;;;;;;;26.55;18.27;;;4.30;99.90;;;;;;4964987;28;20043;-75
2022/12/02 02:06:45;;;;;;;25.10;17.30;;;4.30;99.90;;;;;;5040392;23;20026;-74
2022/12/02 02:09:12;;;;;;;26.33;15.65;;;4.30;99.90;;;;;;4962922;28;20062;-75
2022/12/02 02:11:40;;;;;;;31.10;19.48;;;4.30;99.90;;;;;;4966794;28;20338;-75
2022/12/02 02:14:08;;;;;;;31.58;15.70;;;4.30;99.90;;;;;;4966590;28;20117;-75
2022/12/02 02:16:34;;;;;;;22.52;15.45;;;4.30;99.90;;;;;;4967236;28;20043;-74
2022/12/02 02:19:01;;;;;;;35.25;18.83;;;4.30;99.90;;;;;;4951290;28;20420;-75
2022/12/02 02:21:35;;;;;;;29.38;15.00;;;4.30;99.90;;;;;;4968435;28;20069;-74
2022/12/02 02:24:01;;;;;;;29.38;16.98;;;4.30;99.90;;;;;;4968510;28;20064;-75
2022/12/02 02:26:27;;;;;;;22.63;15.45;;;4.20;99.90;;;;;;4967629;28;20754;-76
2022/12/02 02:28:52;;;;;;;38.20;16.73;;;4.20;99.90;;;;;;4967318;28;20067;-75
2022/12/02 02:31:18;;;;;;;33.63;16.58;;;4.20;99.90;;;;;;4967754;28;20089;-75
2022/12/02 02:33:46;;;;;;;35.47;20.13;;;4.20;99.90;;;;;;4968562;28;20042;-75
2022/12/02 02:36:11;;;;;;;29.65;15.18;;;4.20;99.90;;;;;;4968018;28;20047;-74
2022/12/02 02:38:38;;;;;;;25.25;17.13;;;4.20;99.90;;;;;;4967438;28;20059;-75
2022/12/02 02:41:04;;;;;;;38.88;18.65;;;4.20;99.90;;;;;;4966929;28;20114;-75
2022/12/02 02:43:30;;;;;;;35.22;17.85;;;4.20;99.90;;;;;;4967529;28;20039;-75
2022/12/02 02:45:57;;;;;;;31.45;16.70;;;4.20;99.90;;;;;;4967829;28;20043;-75
2022/12/02 02:48:24;;;;;;;31.27;18.25;;;4.20;99.90;;;;;;4968182;28;20035;-75
2022/12/02 02:50:51;;;;;;;30.33;18.25;;;4.20;99.90;;;;;;4968068;28;20074;-75
2022/12/02 02:53:19;;;;;;;29.02;15.90;;;4.20;99.90;;;;;;4968475;28;20042;-75
2022/12/02 02:55:44;;;;;;;37.40;18.63;;;4.20;99.90;;;;;;4968653;28;20634;-75
2022/12/02 02:58:16;;;;;;;31.33;19.15;;;4.20;99.90;;;;;;4966862;28;20030;-74
2022/12/02 03:00:47;;;;;;;36.45;18.77;;;4.20;99.90;;;;;;4967961;28;20043;-74
2022/12/02 03:03:15;;;;;;;34.05;17.80;;;4.10;99.90;;;;;;4949798;28;20074;-76
2022/12/02 03:05:41;;;;;;;25.25;16.58;;;4.10;99.90;;;;;;4967894;28;20047;-75
2022/12/02 03:08:08;;;;;;;28.95;17.80;;;4.10;99.90;;;;;;4966281;28;20074;-74
2022/12/02 03:10:34;;;;;;;23.63;16.80;;;4.10;99.90;;;;;;4966525;28;20104;-75
2022/12/02 03:13:00;;;;;;;39.08;18.92;;;4.10;99.90;;;;;;4966667;28;20397;-74
2022/12/02 03:15:27;;;;;;;43.45;16.42;;;4.10;99.90;;;;;;4966427;28;20053;-75
2022/12/02 03:17:53;;;;;;;28.88;15.40;;;4.10;99.90;;;;;;4967197;28;20050;-75
2022/12/02 03:20:21;;;;;;;33.58;18.48;;;4.10;99.90;;;;;;4954614;28;20047;-76
2022/12/02 03:22:47;;;;;;;27.27;15.18;;;4.10;99.90;;;;;;4952469;28;20066;-75
2022/12/02 03:25:12;;;;;;;37.40;17.17;;;4.10;99.90;;;;;;4967534;28;20089;-76
2022/12/02 03:27:38;;;;;;;27.58;16.77;;;4.10;99.90;;;;;;4963273;28;20135;-76
2022/12/02 03:30:05;;;;;;;26.83;14.15;;;4.10;99.90;;;;;;4947116;28;20110;-75
2022/12/02 03:32:31;;;;;;;29.25;16.60;;;4.10;99.90;;;;;;4947267;29;20638;-76
2022/12/02 03:34:57;;;;;;;24.95;15.15;;;4.10;99.90;;;;;;4947905;28;20051;-75
2022/12/02 03:37:22;;;;;;;27.30;16.23;;;4.10;99.90;;;;;;4948097;28;20057;-75
2022/12/02 03:39:49;;;;;;;28.63;15.35;;;4.00;99.90;;;;;;4963455;28;20047;-77
2022/12/02 03:42:15;;;;;;;26.35;16.73;;;4.10;99.90;;;;;;4957823;28;20055;-75
2022/12/02 03:44:41;;;;;;;24.30;14.48;;;4.00;99.90;;;;;;4966488;28;20039;-75
2022/12/02 03:47:07;;;;;;;28.30;17.83;;;4.00;99.90;;;;;;4965203;28;20165;-75
2022/12/02 03:49:34;;;;;;;31.77;15.52;;;4.00;99.90;;;;;;4967298;28;20579;-75
2022/12/02 03:51:59;;;;;;;38.03;17.00;;;4.00;99.90;;;;;;4966881;28;20043;-75
2022/12/02 03:54:25;;;;;;;21.48;13.02;;;4.00;99.90;;;;;;4967131;28;20053;-75
2022/12/02 03:56:51;;;;;;;24.05;13.63;;;4.00;99.90;;;;;;4966822;28;20568;-75
2022/12/02 03:59:24;;;;;;;28.20;15.68;;;4.00;99.90;;;;;;4965291;28;20090;-74
2022/12/02 04:01:50;;;;;;;25.13;14.02;;;4.00;99.90;;;;;;4966884;28;20058;-76
2022/12/02 04:04:15;;;;;;;29.65;15.07;;;4.00;99.90;;;;;;4967087;28;20038;-75
2022/12/02 04:06:41;;;;;;;25.50;15.98;;;4.00;99.90;;;;;;4964945;28;20102;-75
2022/12/02 04:09:06;;;;;;;22.35;15.65;;;4.00;99.90;;;;;;4965499;28;20773;-76
2022/12/02 04:11:32;;;;;;;29.35;15.48;;;4.00;99.90;;;;;;4965657;28;20073;-74
2022/12/02 04:13:58;;;;;;;25.88;15.25;;;4.00;99.90;;;;;;4965402;28;20042;-75
2022/12/02 04:16:23;;;;;;;18.85;12.80;;;4.00;99.90;;;;;;4965479;28;20071;-75
2022/12/02 04:18:49;;;;;;;25.38;16.25;;;3.90;99.90;;;;;;4964566;28;20050;-77
2022/12/02 04:21:14;;;;;;;39.20;17.92;;;3.90;99.90;;;;;;4967100;28;20405;-75
2022/12/02 04:23:40;;;;;;;28.73;14.68;;;3.90;99.90;;;;;;4966400;28;20113;-75
2022/12/02 04:26:06;;;;;;;30.45;16.65;;;4.00;99.90;;;;;;4965767;28;20038;-74
2022/12/02 04:28:31;;;;;;;38.40;17.75;;;3.90;99.90;;;;;;4964221;28;20489;-74
2022/12/02 04:30:57;;;;;;;27.60;18.23;;;3.90;99.90;;;;;;4966282;28;20047;-75
2022/12/02 04:33:22;;;;;;;24.52;18.60;;;3.90;99.90;;;;;;4964603;28;20085;-74
2022/12/02 04:35:48;;;;;;;26.50;14.27;;;3.90;99.90;;;;;;4964989;28;20046;-74
2022/12/02 04:38:14;;;;;;;33.30;15.18;;;3.90;99.90;;;;;;4965365;28;20490;-74
2022/12/02 04:40:39;;;;;;;21.45;15.82;;;3.90;99.90;;;;;;4980940;28;20130;-75
2022/12/02 04:43:05;;;;;;;24.42;16.73;;;3.90;99.90;;;;;;4947015;28;20094;-75
2022/12/02 04:45:31;;;;;;;28.88;14.43;;;3.90;99.90;;;;;;4946928;28;20413;-75
2022/12/02 04:47:56;;;;;;;23.02;15.02;;;3.90;99.90;;;;;;4946874;28;20040;-75
2022/12/02 04:50:22;;;;;;;27.60;17.13;;;3.90;99.90;;;;;;4947911;28;20051;-75
2022/12/02 04:52:47;;;;;;;27.17;14.02;;;3.80;99.90;;;;;;4965065;28;20034;-75
2022/12/02 04:55:20;;;;;;;21.90;15.60;;;3.80;99.90;;;;;;5122204;27;20386;-77
2022/12/02 04:57:46;;;;;;;28.90;17.70;;;3.80;99.90;;;;;;5103298;28;20047;-77
2022/12/02 05:00:12;;;;;;;44.40;15.57;;;3.90;99.90;;;;;;5122037;27;20118;-77
2022/12/02 05:02:37;;;;;;;34.35;16.45;;;3.90;99.90;;;;;;5120713;28;20049;-77
2022/12/02 05:05:03;;;;;;;26.80;15.98;;;3.80;99.90;;;;;;5121075;28;20027;-76
2022/12/02 05:07:29;;;;;;;24.33;15.23;;;3.80;99.90;;;;;;5121836;28;20044;-76
2022/12/02 05:09:54;;;;;;;28.88;15.57;;;3.80;99.90;;;;;;5103380;28;20042;-77
2022/12/02 05:12:20;;;;;;;28.88;16.35;;;3.80;99.90;;;;;;5121358;28;20055;-76
2022/12/02 05:14:46;;;;;;;23.83;14.35;;;3.80;99.90;;;;;;5119986;28;20481;-77
2022/12/02 05:17:11;;;;;;;29.95;16.80;;;3.80;99.90;;;;;;5120169;28;20039;-76
2022/12/02 05:19:37;;;;;;;27.98;15.43;;;3.80;99.90;;;;;;5120462;28;20489;-76
2022/12/02 05:22:02;;;;;;;30.80;15.48;;;3.90;99.90;;;;;;5121401;28;20401;-77
2022/12/02 05:24:28;;;;;;;30.27;15.63;;;3.90;99.90;;;;;;5121400;28;20082;-76
2022/12/02 05:26:53;;;;;;;27.00;15.88;;;3.90;99.90;;;;;;5119861;28;20044;-76
2022/12/02 05:29:19;;;;;;;27.38;17.42;;;3.90;99.90;;;;;;5120694;28;20046;-77
2022/12/02 05:31:44;;;;;;;27.38;16.92;;;3.80;99.90;;;;;;5103271;28;20039;-76
2022/12/02 05:34:10;;;;;;;39.03;18.85;;;3.80;99.90;;;;;;5119863;28;20392;-77
2022/12/02 05:36:36;;;;;;;26.23;17.63;;;3.80;99.90;;;;;;5121358;28;20116;-76
2022/12/02 05:39:01;;;;;;;26.63;16.63;;;3.80;99.90;;;;;;5119564;28;20043;-76
2022/12/02 05:41:27;;;;;;;28.00;15.25;;;3.80;99.90;;;;;;5121086;28;20519;-75
2022/12/02 05:43:53;;;;;;;28.67;15.43;;;3.80;99.90;;;;;;5120153;28;20035;-74
2022/12/02 05:46:20;;;;;;;34.05;18.10;;;3.80;99.90;;;;;;5119702;28;20059;-78
2022/12/02 05:48:48;;;;;;;36.83;15.30;;;3.80;99.90;;;;;;5120218;28;20148;-76
2022/12/02 05:51:19;;;;;;;31.67;19.40;;;3.90;99.90;;;;;;5120037;28;20130;-77
2022/12/02 05:53:46;;;;;;;38.58;22.98;;;3.80;99.90;;;;;;5120716;27;20035;-76
2022/12/02 05:56:24;;;;;;;27.58;16.95;;;3.80;99.90;;;;;;5120496;27;20051;-76
2022/12/02 05:58:50;;;;;;;37.38;18.65;;;3.80;99.90;;;;;;5120375;27;20051;-75
2022/12/02 06:01:32;;;;;;;43.80;15.75;;;3.80;99.90;;;;;;5120100;28;20036;-75
2022/12/02 06:03:57;;;;;;;33.05;16.90;;;3.70;99.90;;;;;;5120631;27;20446;-75
2022/12/02 06:06:28;;;;;;;32.13;18.80;;;3.70;99.90;;;;;;5090303;28;20184;-75
2022/12/02 06:08:55;;;;;;;51.80;20.65;;;3.70;99.90;;;;;;5105524;28;20055;-75
2022/12/02 06:11:28;;;;;;;38.20;15.98;;;3.60;99.90;;;;;;5106910;28;20508;-75
2022/12/02 06:14:00;;;;;;;23.77;16.95;;;3.60;99.90;;;;;;5105772;28;20043;-77
2022/12/02 06:16:29;;;;;;;26.02;17.90;;;3.60;99.90;;;;;;5105109;28;20043;-76
2022/12/02 06:18:57;;;;;;;33.47;18.20;;;3.60;99.90;;;;;;5106419;28;20118;-76
2022/12/02 06:21:24;;;;;;;32.92;18.77;;;3.60;99.90;;;;;;5104987;28;20473;-76
2022/12/02 06:23:52;;;;;;;34.47;18.77;;;3.60;99.90;;;;;;5108582;27;20152;-76
2022/12/02 06:26:19;;;;;;;37.67;19.67;;;3.60;99.90;;;;;;5106959;28;20032;-76
2022/12/02 06:28:47;;;;;;;29.88;20.23;;;3.60;99.90;;;;;;5104847;28;20424;-76
2022/12/02 06:31:30;;;;;;;32.58;17.20;;;3.60;99.90;;;;;;5135494;27;20055;-74
2022/12/02 06:33:58;;;;;;;41.60;19.30;;;3.50;99.90;;;;;;5106764;28;20043;-76
2022/12/02 06:36:32;;;;;;;34.13;18.23;;;3.50;99.90;;;;;;5085723;27;20036;-78
2022/12/02 06:39:00;;;;;;;24.02;17.45;;;3.50;99.90;;;;;;5089075;28;20047;-76
2022/12/02 06:41:29;;;;;;;35.55;20.48;;;3.50;99.90;;;;;;5085370;27;20043;-77
2022/12/02 06:46:45;;;;;;;33.28;20.45;;;3.50;99.90;;;;;;5084880;28;20074;-76
2022/12/02 06:49:22;;;;;;;29.88;17.27;;;3.40;99.90;;;;;;5084505;28;20062;-77
2022/12/02 06:52:02;;;;;;;36.00;22.02;;;3.40;99.90;;;;;;5084707;28;20509;-76
2022/12/02 06:54:31;;;;;;;38.10;19.17;;;3.40;99.90;;;;;;5081940;28;20060;-74
2022/12/02 06:57:00;;;;;;;31.15;19.98;;;3.40;99.90;;;;;;5079756;28;20055;-76
2022/12/02 06:59:26;;;;;;;45.95;19.40;;;3.40;99.90;;;;;;5078853;28;20136;-74
2022/12/02 07:01:55;;;;;;;46.92;18.98;;;3.40;99.90;;;;;;5079034;28;20055;-74
2022/12/02 07:04:30;;;;;;;36.47;18.48;;;3.40;99.90;;;;;;5078790;28;20606;-74
2022/12/02 07:07:00;;;;;;;44.30;18.52;;;3.40;99.90;;;;;;5078354;27;20090;-74
2022/12/02 07:09:36;;;;;;;28.77;16.08;;;3.40;99.90;;;;;;5079235;28;20551;-74
2022/12/02 07:12:03;;;;;;;31.90;16.52;;;3.40;99.90;;;;;;5091559;28;20058;-73
2022/12/02 07:14:50;;;;;;;38.83;20.83;;;3.40;99.90;;;;;;5103166;27;20066;-73
2022/12/02 07:17:28;;;;;;;30.70;18.85;;;3.40;99.90;;;;;;5103894;27;20521;-74
2022/12/02 07:20:06;;;;;;;44.72;21.63;;;3.40;99.90;;;;;;5136341;27;20055;-73
2022/12/02 07:22:42;;;;;;;41.90;19.50;;;3.40;99.90;;;;;;5121883;27;20405;-73
2022/12/02 07:25:32;;;;;;;42.80;17.95;;;3.40;99.90;;;;;;5114615;27;20043;-74
2022/12/02 07:27:58;;;;;;;34.38;18.70;;;3.50;99.90;;;;;;5103851;27;20028;-73
2022/12/02 07:30:34;;;;;;;34.58;20.02;;;3.50;99.90;;;;;;5104300;28;20043;-73
2022/12/02 07:33:00;;;;;;;31.48;18.10;;;3.50;99.90;;;;;;5106577;27;20057;-72
2022/12/02 07:35:26;;;;;;;33.55;19.77;;;3.50;99.90;;;;;;5103107;27;20036;-73
2022/12/02 07:37:51;;;;;;;44.97;19.83;;;3.50;99.90;;;;;;5101712;28;20160;-75
2022/12/02 07:40:19;;;;;;;40.92;19.75;;;3.40;99.90;;;;;;5102745;28;20055;-75
2022/12/02 07:42:44;;;;;;;30.73;18.90;;;3.50;99.90;;;;;;5103585;28;20054;-77
2022/12/02 07:45:12;;;;;;;33.58;18.35;;;3.50;99.90;;;;;;5105129;27;20477;-77
2022/12/02 07:47:37;;;;;;;36.90;19.60;;;3.50;99.90;;;;;;5104591;28;20075;-77
2022/12/02 07:50:04;;;;;;;49.83;18.75;;;3.50;99.90;;;;;;5103733;27;20070;-75
2022/12/02 07:52:29;;;;;;;34.35;18.65;;;3.50;99.90;;;;;;5112887;27;20059;-75
2022/12/02 07:54:55;;;;;;;34.78;21.88;;;3.50;99.90;;;;;;5102962;28;20047;-76
2022/12/02 07:57:21;;;;;;;37.80;19.80;;;3.50;99.90;;;;;;5101894;28;20534;-79
2022/12/02 07:59:46;;;;;;;32.45;16.63;;;3.50;99.90;;;;;;5105201;27;20035;-75
2022/12/02 08:02:12;;;;;;;33.47;18.20;;;3.50;99.90;;;;;;5104547;27;20508;-73
2022/12/02 08:04:38;;;;;;;35.35;18.20;;;3.40;99.90;;;;;;5105532;27;20043;-74
2022/12/02 08:07:03;;;;;;;31.80;19.85;;;3.40;99.90;;;;;;5102600;28;20605;-73
2022/12/02 08:09:29;;;;;;;29.50;15.20;;;3.40;99.90;;;;;;5101972;28;20047;-73
2022/12/02 08:11:55;;;;;;;22.95;14.98;;;3.40;99.90;;;;;;5102512;28;20082;-74
2022/12/02 08:14:20;;;;;;;32.00;16.92;;;3.40;99.90;;;;;;5115822;27;20517;-74
2022/12/02 08:16:46;;;;;;;39.53;16.92;;;3.40;99.90;;;;;;5104076;28;20645;-73
2022/12/02 08:19:11;;;;;;;36.53;17.13;;;3.40;99.90;;;;;;5103313;28;20124;-74
2022/12/02 08:21:39;;;;;;;33.40;17.45;;;3.40;99.90;;;;;;5114563;27;20040;-73
2022/12/02 08:24:05;;;;;;;20.55;15.23;;;3.40;99.90;;;;;;5101776;28;20400;-73
2022/12/02 08:26:31;;;;;;;29.83;17.23;;;3.40;99.90;;;;;;5101898;28;20051;-73
2022/12/02 08:28:56;;;;;;;24.20;16.20;;;3.40;99.90;;;;;;5101806;28;20051;-73
2022/12/02 08:31:22;;;;;;;23.67;15.38;;;3.40;99.90;;;;;;5101445;28;20040;-73
2022/12/02 08:33:48;;;;;;;27.02;15.98;;;3.40;99.90;;;;;;5103306;28;20039;-73
2022/12/02 08:36:14;;;;;;;33.10;15.88;;;3.40;99.90;;;;;;5104544;27;20039;-73
2022/12/02 08:38:41;;;;;;;26.02;14.77;;;3.40;99.90;;;;;;5103228;28;20043;-73
2022/12/02 08:41:06;;;;;;;22.38;15.48;;;3.40;99.90;;;;;;5101791;28;20028;-74
2022/12/02 08:43:32;;;;;;;32.40;15.88;;;3.50;99.90;;;;;;5101681;28;20082;-74
2022/12/02 08:45:58;;;;;;;34.50;12.68;;;3.50;99.90;;;;;;5098141;27;20114;-76
2022/12/02 08:48:23;;;;;;;26.52;11.27;;;3.50;99.90;;;;;;5101274;28;20063;-77
2022/12/02 08:50:49;;;;;;;26.98;13.25;;;3.60;99.90;;;;;;5104862;28;20046;-74
2022/12/02 08:53:14;;;;;;;16.83;11.15;;;3.60;99.90;;;;;;5102876;28;20051;-75
2022/12/02 08:55:40;;;;;;;29.95;14.02;;;3.60;99.90;;;;;;5105941;28;20389;-74
2022/12/02 08:58:06;;;;;;;33.72;12.30;;;3.70;99.90;;;;;;5102000;28;20044;-75
2022/12/02 09:00:31;;;;;;;24.00;13.35;;;3.70;99.90;;;;;;5101905;28;20108;-74
2022/12/02 09:02:57;;;;;;;28.08;14.18;;;3.70;99.90;;;;;;5113831;28;20394;-75
2022/12/02 09:05:22;;;;;;;28.15;16.83;;;3.80;99.90;;;;;;5102359;28;20028;-75
2022/12/02 09:07:48;;;;;;;26.30;15.77;;;3.80;99.90;;;;;;5101637;28;20067;-74
2022/12/02 09:10:14;;;;;;;31.30;14.55;;;3.80;99.90;;;;;;5102777;28;20437;-74
2022/12/02 09:12:40;;;;;;;25.42;12.80;;;3.80;99.90;;;;;;5111054;28;20050;-74
2022/12/02 09:15:06;;;;;;;38.55;17.58;;;3.80;99.90;;;;;;5108979;28;20032;-74
2022/12/02 09:17:32;;;;;;;31.42;18.58;;;3.80;99.90;;;;;;5122830;27;20074;-74
2022/12/02 09:19:58;;;;;;;27.98;16.88;;;3.80;99.90;;;;;;5110786;28;20585;-74
2022/12/02 09:22:24;;;;;;;36.53;19.48;;;3.80;99.90;;;;;;5102261;28;20398;-74
2022/12/02 09:24:49;;;;;;;30.00;17.95;;;3.80;99.90;;;;;;5102301;28;20038;-75
2022/12/02 09:27:15;;;;;;;31.42;14.65;;;3.80;99.90;;;;;;5102392;28;20082;-74
2022/12/02 09:29:40;;;;;;;24.65;15.05;;;3.80;99.90;;;;;;5106261;28;20549;-74
2022/12/02 09:32:06;;;;;;;24.60;16.73;;;3.80;99.90;;;;;;5106003;28;20291;-74
2022/12/02 09:34:32;;;;;;;25.10;16.35;;;3.80;99.90;;;;;;5101788;28;20070;-75
2022/12/02 09:36:57;;;;;;;22.73;12.27;;;3.70;99.90;;;;;;5101259;28;20074;-76
2022/12/02 09:39:23;;;;;;;19.48;13.45;;;3.70;99.90;;;;;;5104903;28;20055;-75
2022/12/02 09:41:48;;;;;;;22.13;15.38;;;3.70;99.90;;;;;;5103384;28;20106;-75
2022/12/02 09:44:14;;;;;;;28.17;16.83;;;3.70;99.90;;;;;;5105094;28;20044;-75
2022/12/02 09:46:40;;;;;;;24.55;15.77;;;3.60;99.90;;;;;;5112971;27;20039;-74
2022/12/02 09:49:05;;;;;;;23.60;14.80;;;3.60;99.90;;;;;;5107374;27;20046;-72
2022/12/02 09:51:32;;;;;;;25.70;15.38;;;3.60;99.90;;;;;;5105753;28;20129;-73
2022/12/02 09:53:59;;;;;;;20.00;13.60;;;3.60;99.90;;;;;;5105581;28;20055;-73
2022/12/02 09:56:24;;;;;;;21.70;15.85;;;3.60;99.90;;;;;;5138399;27;20048;-72
2022/12/02 09:58:53;;;;;;;23.42;13.75;;;3.50;99.90;;;;;;5103798;28;20391;-73
2022/12/02 10:01:19;;;;;;;24.13;14.02;;;3.50;99.90;;;;;;5087332;28;20035;-74
2022/12/02 10:03:48;;;;;;;26.20;15.23;;;3.50;99.90;;;;;;5105668;28;20036;-73
2022/12/02 10:06:25;;;;;;;22.25;13.75;;;3.40;99.90;;;;;;5105753;27;20046;-72
2022/12/02 10:08:53;;;;;;;21.80;11.95;;;3.40;99.90;;;;;;5104133;28;20520;-73
2022/12/02 10:11:26;;;;;;;26.90;12.40;;;3.40;99.90;;;;;;5105411;28;20035;-75
2022/12/02 10:13:53;;;;;;;18.42;10.73;;;3.40;99.90;;;;;;5103962;28;20055;-73
2022/12/02 10:16:18;;;;;;;24.65;12.68;;;3.40;99.90;;;;;;5104282;28;20564;-74
2022/12/02 10:18:45;;;;;;;21.48;11.50;;;3.40;99.90;;;;;;5106330;28;20134;-74
2022/12/02 10:21:11;;;;;;;27.02;12.18;;;3.40;99.90;;;;;;5105223;28;20316;-73
2022/12/02 10:24:00;;;;;;;26.92;13.00;;;3.40;99.90;;;;;;5105242;28;20451;-74
2022/12/02 10:26:26;;;;;;;26.92;13.75;;;3.30;99.90;;;;;;5105054;28;20083;-73
2022/12/02 10:29:07;;;;;;;20.52;11.25;;;3.30;99.90;;;;;;5102366;28;20067;-73
2022/12/02 10:31:33;;;;;;;23.15;11.20;;;3.30;99.90;;;;;;5103815;28;20374;-73
2022/12/02 10:34:01;;;;;;;14.20;9.48;;;3.30;99.90;;;;;;5103545;28;20040;-72
2022/12/02 10:36:39;;;;;;;24.65;10.90;;;3.30;99.90;;;;;;5103620;28;20126;-73
2022/12/02 10:39:32;;;;;;;15.32;10.65;;;3.30;99.90;;;;;;5104834;28;20024;-73
2022/12/02 10:42:04;;;;;;;24.67;12.70;;;3.40;99.90;;;;;;5103857;28;20054;-72
2022/12/02 10:44:41;;;;;;;32.17;16.63;;;3.50;99.90;;;;;;5103431;28;20048;-73
2022/12/02 10:47:18;;;;;;;18.02;12.95;;;3.50;99.90;;;;;;5103373;28;20493;-72
2022/12/02 10:49:49;;;;;;;18.48;11.40;;;3.60;99.90;;;;;;5086652;28;20101;-72
2022/12/02 10:52:16;;;;;;;17.52;9.68;;;3.60;99.90;;;;;;5104920;28;20390;-73
2022/12/02 10:54:46;;;;;;;18.45;10.70;;;3.70;99.90;;;;;;5105348;27;20067;-77
2022/12/02 10:57:20;;;;;;;22.65;14.15;;;3.70;99.90;;;;;;5084856;28;20070;-72
2022/12/02 10:59:45;;;;;;;19.13;12.02;;;3.60;99.90;;;;;;5098481;28;20211;-73
2022/12/02 11:02:28;;;;;;;22.25;12.20;;;3.60;99.90;;;;;;5103571;28;20035;-72
2022/12/02 11:04:54;;;;;;;34.60;13.82;;;3.50;99.90;;;;;;5099370;27;20043;-72
2022/12/02 11:07:22;;;;;;;14.27;10.23;;;3.50;99.90;;;;;;5101715;28;20031;-75
2022/12/02 11:09:52;;;;;;;15.15;9.68;;;3.50;99.90;;;;;;5104798;28;20431;-76
2022/12/02 11:12:56;;;;;;;22.15;12.40;;;3.40;99.90;;;;;;5103903;28;20057;-74
2022/12/02 11:15:49;;;;;;;20.75;11.27;;;3.40;99.90;;;;;;5104937;28;20093;-75
2022/12/02 11:18:24;;;;;;;26.13;10.60;;;3.40;99.90;;;;;;5103794;28;20141;-75
2022/12/02 11:21:13;;;;;;;15.90;10.40;;;3.40;99.90;;;;;;5103281;28;20047;-75
2022/12/02 11:23:39;;;;;;;19.73;10.70;;;3.40;99.90;;;;;;5093171;28;20162;-74
2022/12/02 11:26:11;;;;;;;28.02;8.90;;;3.40;99.90;;;;;;5103890;28;20040;-74
2022/12/02 11:29:07;;;;;;;18.00;11.55;;;3.40;99.90;;;;;;5092682;28;20042;-77
2022/12/02 11:31:32;;;;;;;21.20;12.70;;;3.40;99.90;;;;;;5093068;28;20051;-78
2022/12/02 11:34:01;;;;;;;22.80;12.52;;;3.40;99.90;;;;;;5104009;27;20369;-75
2022/12/02 11:36:31;;;;;;;16.40;12.65;;;3.40;99.90;;;;;;5104109;28;20350;-75
2022/12/02 11:38:57;;;;;;;15.13;11.05;;;3.40;99.90;;;;;;5103953;28;20039;-75
2022/12/02 11:41:49;;;;;;;26.23;10.07;;;3.40;99.90;;;;;;5103093;28;20120;-74
2022/12/02 11:44:27;;;;;;;19.88;11.23;;;3.40;99.90;;;;;;5124186;27;20057;-76
2022/12/02 11:46:58;;;;;;;18.60;11.43;;;3.50;99.90;;;;;;5108264;27;20031;-74
2022/12/02 11:49:36;;;;;;;20.00;11.57;;;3.40;99.90;;;;;;5097951;28;20076;-72
2022/12/02 11:52:08;;;;;;;27.83;14.65;;;3.50;99.90;;;;;;5085508;28;20369;-73
2022/12/02 11:54:40;;;;;;;25.30;13.23;;;3.50;99.90;;;;;;5103091;28;20070;-73
2022/12/02 11:57:06;;;;;;;19.85;11.82;;;3.50;99.90;;;;;;5111204;27;20036;-72
2022/12/02 11:59:34;;;;;;;18.10;11.70;;;3.40;99.90;;;;;;5104045;28;20103;-72
2022/12/02 12:02:12;;;;;;;17.92;11.65;;;3.40;99.90;;;;;;5106983;27;20032;-72
2022/12/02 12:04:38;;;;;;;20.52;12.90;;;3.40;99.90;;;;;;5110687;27;20035;-73
2022/12/02 12:07:03;;;;;;;26.42;14.27;;;3.40;99.90;;;;;;5116272;27;20428;-74
2022/12/02 12:09:29;;;;;;;22.17;13.18;;;3.40;99.90;;;;;;5110932;27;20130;-73
2022/12/02 12:12:15;;;;;;;28.77;14.02;;;3.40;99.90;;;;;;5102439;28;20043;-73
2022/12/02 12:15:02;;;;;;;30.10;16.43;;;3.30;99.90;;;;;;5081829;28;20101;-73
2022/12/02 12:17:36;;;;;;;23.83;14.73;;;3.30;99.90;;;;;;5121802;27;20039;-74
2022/12/02 12:20:03;;;;;;;23.65;17.88;;;3.40;99.90;;;;;;5085214;28;20447;-73
2022/12/02 12:22:30;;;;;;;28.63;18.85;;;3.40;99.90;;;;;;5102091;28;20509;-72
2022/12/02 12:25:33;;;;;;;20.80;15.63;;;3.40;99.90;;;;;;5101552;27;20035;-72
2022/12/02 12:27:59;;;;;;;32.97;17.92;;;3.40;99.90;;;;;;5100799;28;20055;-72
2022/12/02 12:30:25;;;;;;;25.23;16.98;;;3.50;99.90;;;;;;5116061;27;20039;-72
2022/12/02 12:32:50;;;;;;;38.13;17.73;;;3.50;99.90;;;;;;5103251;28;20039;-72
2022/12/02 12:35:16;;;;;;;28.17;17.13;;;3.60;99.90;;;;;;5102633;28;20047;-72
2022/12/02 12:37:41;;;;;;;21.42;16.67;;;3.60;99.90;;;;;;5103488;28;20035;-71
2022/12/02 12:40:07;;;;;;;29.98;18.27;;;3.60;99.90;;;;;;5102034;28;20546;-72
2022/12/02 12:42:33;;;;;;;26.92;18.67;;;3.70;99.90;;;;;;5101912;28;20393;-72
2022/12/02 12:44:58;;;;;;;28.45;16.02;;;3.70;99.90;;;;;;5101776;28;20067;-72
2022/12/02 12:47:24;;;;;;;26.95;17.33;;;3.70;99.90;;;;;;5102728;28;20052;-72
2022/12/02 12:49:50;;;;;;;28.40;18.10;;;3.70;99.90;;;;;;5103310;28;20114;-72
2022/12/02 12:52:15;;;;;;;28.20;17.10;;;3.80;99.90;;;;;;5084647;28;20092;-72